Time;durP1;ratioP1;P1;durP2;ratioP2;P2;SDS_P1;SDS_P2;PMS_P1;PMS_P2;Temp;Humidity;BMP_temperature;BMP_pressure;BME280_temperature;BME280_humidity;BME280_pressure;Samples;Min_cycle;Max_cycle;Signal;HPM_P1;HPM_P2
2022/03/19 00:01:11;;;;;;;0.30;0.30;;;6.60;75.70;;;;;;5054320;28;20610;-65
2022/03/19 00:03:36;;;;;;;0.30;0.30;;;6.60;75.80;;;;;;5054728;28;20174;-66
2022/03/19 00:06:03;;;;;;;0.50;0.50;;;6.50;74.80;;;;;;5054475;28;20442;-66
2022/03/19 00:08:29;;;;;;;0.40;0.40;;;6.40;74.70;;;;;;5054192;28;20223;-66
2022/03/19 00:10:56;;;;;;;0.40;0.40;;;6.30;74.60;;;;;;5054251;28;20189;-66
2022/03/19 00:13:22;;;;;;;0.40;0.40;;;6.50;74.20;;;;;;5036612;28;20181;-66
2022/03/19 00:15:50;;;;;;;0.30;0.30;;;6.60;73.90;;;;;;5054226;28;20194;-66
2022/03/19 00:18:17;;;;;;;0.40;0.40;;;6.70;73.90;;;;;;5054079;28;20175;-66
2022/03/19 00:20:43;;;;;;;3.72;2.35;;;6.50;73.10;;;;;;5053860;28;20259;-66
2022/03/19 00:23:10;;;;;;;0.40;0.40;;;6.50;73.10;;;;;;5054088;28;20200;-66
2022/03/19 00:25:36;;;;;;;0.52;0.52;;;6.40;73.20;;;;;;5053923;28;20783;-66
2022/03/19 00:28:05;;;;;;;0.80;0.80;;;6.40;73.90;;;;;;5053719;28;20206;-66
2022/03/19 00:30:31;;;;;;;0.40;0.40;;;6.60;73.40;;;;;;5053762;28;20170;-66
2022/03/19 00:32:59;;;;;;;0.70;0.70;;;6.40;72.80;;;;;;5054038;28;20261;-65
2022/03/19 00:35:25;;;;;;;0.40;0.40;;;6.40;72.90;;;;;;5053759;28;20190;-66
2022/03/19 00:37:53;;;;;;;0.40;0.40;;;6.50;72.00;;;;;;5053801;28;20276;-66
2022/03/19 00:40:22;;;;;;;0.50;0.50;;;6.30;72.50;;;;;;5053488;28;20311;-66
2022/03/19 00:42:48;;;;;;;0.40;0.40;;;6.60;73.40;;;;;;5054022;28;20199;-66
2022/03/19 00:45:14;;;;;;;0.53;0.53;;;6.20;71.80;;;;;;5053808;28;20670;-66
2022/03/19 00:47:40;;;;;;;0.30;0.30;;;6.40;73.30;;;;;;5053529;28;20457;-66
2022/03/19 00:50:07;;;;;;;0.40;0.40;;;6.50;72.10;;;;;;5053095;28;20424;-66
2022/03/19 00:52:33;;;;;;;0.88;0.88;;;6.40;71.80;;;;;;5051283;28;20182;-66
2022/03/19 00:54:59;;;;;;;0.40;0.40;;;6.50;71.60;;;;;;5052583;28;20636;-66
2022/03/19 00:57:24;;;;;;;1.03;1.03;;;6.20;71.70;;;;;;5053481;28;20214;-66
2022/03/19 00:59:50;;;;;;;0.40;0.40;;;6.20;73.10;;;;;;5052903;28;20253;-65
2022/03/19 01:02:16;;;;;;;0.40;0.40;;;6.20;72.60;;;;;;5053393;28;20173;-66
2022/03/19 01:04:41;;;;;;;0.50;0.50;;;6.30;72.50;;;;;;5053344;28;20551;-66
2022/03/19 01:07:07;;;;;;;0.30;0.30;;;6.30;73.00;;;;;;5053457;28;20428;-66
2022/03/19 01:09:33;;;;;;;0.40;0.40;;;6.50;72.60;;;;;;5053445;28;20250;-65
2022/03/19 01:11:58;;;;;;;4.27;0.90;;;6.10;72.60;;;;;;5053222;28;20538;-66
2022/03/19 01:14:24;;;;;;;0.30;0.30;;;6.20;73.50;;;;;;5053436;28;20181;-66
2022/03/19 01:16:50;;;;;;;0.57;0.57;;;6.20;73.60;;;;;;5053215;28;20269;-66
2022/03/19 01:19:52;;;;;;;0.40;0.40;;;6.20;73.20;;;;;;5053597;28;20174;-66
2022/03/19 01:22:01;;;;;;;0.50;0.50;;;6.10;73.10;;;;;;5053062;28;20288;-65
2022/03/19 01:24:26;;;;;;;0.30;0.30;;;5.50;75.30;;;;;;5053241;28;20198;-66
2022/03/19 01:26:52;;;;;;;1.07;1.07;;;5.70;75.20;;;;;;5052966;28;20281;-66
2022/03/19 01:29:18;;;;;;;0.40;0.40;;;6.00;73.50;;;;;;5053145;28;20197;-66
2022/03/19 01:31:43;;;;;;;1.37;1.37;;;6.00;73.80;;;;;;5052844;28;20397;-66
2022/03/19 01:34:09;;;;;;;0.40;0.40;;;6.20;72.90;;;;;;5053370;28;20611;-66
2022/03/19 01:36:35;;;;;;;0.40;0.40;;;6.00;71.80;;;;;;5053068;28;20217;-66
2022/03/19 01:39:00;;;;;;;0.40;0.40;;;6.10;74.10;;;;;;5053166;28;20205;-66
2022/03/19 01:41:26;;;;;;;0.30;0.30;;;6.10;73.00;;;;;;5052730;28;20174;-65
2022/03/19 01:43:52;;;;;;;0.63;0.63;;;6.20;72.30;;;;;;5053077;28;20166;-66
2022/03/19 01:46:17;;;;;;;0.70;0.70;;;6.30;72.20;;;;;;5052886;28;20194;-66
2022/03/19 01:48:43;;;;;;;0.30;0.30;;;6.00;72.10;;;;;;5052825;28;20660;-66
2022/03/19 01:51:08;;;;;;;0.40;0.40;;;6.00;71.90;;;;;;5052792;28;20169;-66
2022/03/19 01:53:35;;;;;;;0.40;0.40;;;6.00;73.30;;;;;;5052996;28;20679;-66
2022/03/19 01:56:01;;;;;;;1.55;1.55;;;6.10;72.60;;;;;;5052884;28;20277;-66
2022/03/19 01:58:27;;;;;;;3.57;3.23;;;5.90;72.80;;;;;;5052675;28;20305;-66
2022/03/19 02:00:53;;;;;;;0.40;0.40;;;5.80;73.10;;;;;;5052496;28;20437;-66
2022/03/19 02:03:19;;;;;;;0.40;0.40;;;5.70;73.20;;;;;;5053892;28;20168;-66
2022/03/19 02:05:48;;;;;;;0.40;0.40;;;5.90;73.80;;;;;;5056424;28;20197;-65
2022/03/19 02:08:13;;;;;;;0.40;0.40;;;6.10;72.80;;;;;;5056611;28;20190;-65
2022/03/19 02:10:39;;;;;;;0.40;0.40;;;5.80;73.20;;;;;;5056520;28;20173;-66
2022/03/19 02:13:05;;;;;;;0.30;0.30;;;5.50;73.80;;;;;;5056610;28;20158;-66
2022/03/19 02:15:31;;;;;;;0.40;0.40;;;5.40;73.50;;;;;;5056326;28;20660;-65
2022/03/19 02:17:56;;;;;;;0.30;0.30;;;5.70;73.40;;;;;;5056443;28;20684;-65
2022/03/19 02:20:22;;;;;;;0.40;0.40;;;5.80;73.20;;;;;;5056163;28;20673;-66
2022/03/19 02:25:37;;;;;;;0.75;0.75;;;6.10;72.00;;;;;;5065143;28;20217;-66
2022/03/19 02:28:04;;;;;;;0.40;0.40;;;5.80;72.00;;;;;;5056129;28;20283;-66
2022/03/19 02:30:31;;;;;;;0.50;0.50;;;5.90;72.50;;;;;;5055922;28;20683;-66
2022/03/19 02:32:57;;;;;;;0.77;0.77;;;6.00;72.50;;;;;;5056166;28;20554;-66
2022/03/19 02:35:23;;;;;;;1.30;1.30;;;5.90;71.60;;;;;;5056248;28;20194;-65
2022/03/19 02:37:50;;;;;;;1.23;1.23;;;5.40;71.60;;;;;;5056066;28;20177;-66
2022/03/19 02:40:18;;;;;;;4.97;1.65;;;5.50;73.20;;;;;;5056414;28;20170;-66
2022/03/19 02:42:48;;;;;;;0.38;0.38;;;5.40;73.00;;;;;;5055950;28;20288;-66
2022/03/19 02:45:14;;;;;;;1.05;1.05;;;5.60;73.10;;;;;;5056052;28;20194;-66
2022/03/19 02:47:57;;;;;;;0.40;0.40;;;5.70;73.20;;;;;;5055762;28;20629;-66
2022/03/19 02:50:25;;;;;;;0.40;0.40;;;5.50;72.90;;;;;;5055583;28;20162;-66
2022/03/19 02:52:51;;;;;;;0.32;0.32;;;5.70;72.80;;;;;;5055685;28;20197;-66
2022/03/19 02:55:17;;;;;;;1.37;1.27;;;5.90;72.50;;;;;;5055617;28;20209;-66
2022/03/19 02:57:42;;;;;;;0.40;0.40;;;5.60;73.30;;;;;;5055641;28;20401;-66
2022/03/19 03:00:08;;;;;;;0.37;0.37;;;5.40;73.90;;;;;;5055355;28;20416;-66
2022/03/19 03:02:34;;;;;;;0.30;0.30;;;5.40;74.40;;;;;;5055906;28;20544;-65
2022/03/19 03:04:59;;;;;;;0.40;0.40;;;5.60;74.10;;;;;;5055406;28;20408;-66
2022/03/19 03:07:25;;;;;;;1.63;1.50;;;5.70;74.20;;;;;;5055386;28;20643;-65
2022/03/19 03:09:51;;;;;;;0.40;0.40;;;5.70;74.00;;;;;;5055385;28;20166;-66
2022/03/19 03:12:16;;;;;;;0.40;0.40;;;5.80;73.20;;;;;;5055283;28;20169;-66
2022/03/19 03:14:42;;;;;;;0.40;0.40;;;5.60;73.60;;;;;;5054522;28;20179;-66
2022/03/19 03:17:07;;;;;;;0.83;0.70;;;5.60;73.90;;;;;;5055316;28;20205;-66
2022/03/19 03:19:34;;;;;;;0.40;0.40;;;5.50;74.30;;;;;;5055462;28;20257;-65
2022/03/19 03:22:00;;;;;;;0.40;0.40;;;5.40;75.30;;;;;;5054986;28;20181;-66
2022/03/19 03:24:26;;;;;;;0.37;0.37;;;5.40;75.20;;;;;;5055143;28;20640;-65
2022/03/19 03:26:52;;;;;;;0.40;0.40;;;5.50;75.00;;;;;;5055435;28;20424;-66
2022/03/19 03:29:17;;;;;;;0.30;0.30;;;5.50;76.20;;;;;;5055001;28;20952;-66
2022/03/19 03:31:44;;;;;;;0.30;0.30;;;5.50;75.80;;;;;;5054854;28;20178;-66
2022/03/19 03:34:10;;;;;;;0.40;0.40;;;5.50;75.60;;;;;;5055126;28;20180;-65
2022/03/19 03:36:35;;;;;;;1.33;1.25;;;5.40;75.90;;;;;;5054888;28;20186;-66
2022/03/19 03:39:01;;;;;;;3.07;1.47;;;5.20;75.80;;;;;;5054866;28;20595;-66
2022/03/19 03:41:27;;;;;;;0.40;0.40;;;5.20;76.00;;;;;;5054788;28;20171;-66
2022/03/19 03:43:52;;;;;;;0.30;0.30;;;5.40;76.40;;;;;;5054926;28;20175;-66
2022/03/19 03:46:18;;;;;;;0.30;0.30;;;5.40;76.70;;;;;;5054615;28;20551;-65
2022/03/19 03:48:44;;;;;;;0.30;0.30;;;5.50;76.20;;;;;;5054585;28;20251;-66
2022/03/19 03:51:11;;;;;;;0.50;0.50;;;5.50;76.60;;;;;;5054415;28;20162;-65
2022/03/19 03:53:38;;;;;;;0.30;0.30;;;5.50;77.20;;;;;;5054811;28;20178;-66
2022/03/19 03:56:04;;;;;;;2.30;1.80;;;5.60;77.00;;;;;;5054560;28;20197;-66
2022/03/19 03:58:31;;;;;;;0.40;0.40;;;5.60;77.30;;;;;;5054620;28;20171;-66
2022/03/19 04:00:57;;;;;;;0.50;0.50;;;5.50;77.70;;;;;;5054188;28;20269;-66
2022/03/19 04:03:22;;;;;;;0.40;0.40;;;5.50;76.70;;;;;;5054578;28;20685;-66
2022/03/19 04:05:49;;;;;;;0.50;0.50;;;5.60;77.00;;;;;;5054274;28;20910;-66
2022/03/19 04:08:15;;;;;;;0.95;0.95;;;5.70;76.20;;;;;;5054355;28;20259;-66
2022/03/19 04:10:40;;;;;;;0.40;0.40;;;5.80;76.30;;;;;;5053986;28;20166;-66
2022/03/19 04:13:06;;;;;;;0.43;0.43;;;5.80;76.70;;;;;;5054312;28;20162;-66
2022/03/19 04:15:32;;;;;;;0.40;0.40;;;5.70;77.20;;;;;;5054040;28;20190;-66
2022/03/19 04:17:58;;;;;;;1.83;1.73;;;5.70;77.00;;;;;;5052743;28;20515;-66
2022/03/19 04:20:24;;;;;;;2.67;1.53;;;5.90;77.10;;;;;;5054003;28;20408;-66
2022/03/19 04:22:50;;;;;;;0.40;0.40;;;5.80;76.80;;;;;;5053961;28;20324;-66
2022/03/19 04:25:23;;;;;;;0.45;0.45;;;5.70;77.10;;;;;;5053866;28;20672;-66
2022/03/19 04:27:50;;;;;;;1.13;1.10;;;5.80;77.20;;;;;;5053815;28;20190;-66
2022/03/19 04:30:17;;;;;;;0.63;0.63;;;5.60;77.40;;;;;;5053881;28;20257;-65
2022/03/19 04:32:43;;;;;;;0.30;0.30;;;5.60;78.00;;;;;;5053758;28;20632;-65
2022/03/19 04:37:58;;;;;;;0.32;0.32;;;5.70;79.00;;;;;;5053876;28;20201;-65
2022/03/19 04:40:24;;;;;;;0.30;0.30;;;5.50;78.70;;;;;;5053520;28;20169;-65
2022/03/19 04:42:49;;;;;;;0.37;0.37;;;5.40;79.40;;;;;;5054233;28;20578;-66
2022/03/19 04:45:15;;;;;;;0.40;0.40;;;5.30;79.90;;;;;;5053687;28;20197;-66
2022/03/19 04:47:41;;;;;;;0.40;0.40;;;5.40;80.00;;;;;;5053811;28;20439;-66
2022/03/19 04:50:08;;;;;;;0.40;0.40;;;5.70;79.50;;;;;;5053404;28;20208;-66
2022/03/19 04:52:34;;;;;;;0.93;0.60;;;5.70;79.60;;;;;;5053493;28;20874;-66
2022/03/19 04:55:00;;;;;;;0.95;0.95;;;5.80;79.50;;;;;;5053511;28;20632;-66
2022/03/19 04:57:29;;;;;;;0.45;0.45;;;5.90;79.00;;;;;;5053396;28;20617;-66
2022/03/19 04:59:55;;;;;;;0.40;0.40;;;5.70;79.30;;;;;;5053034;28;20174;-66
2022/03/19 05:02:24;;;;;;;0.30;0.30;;;5.60;79.80;;;;;;5053727;28;20511;-65
2022/03/19 05:04:51;;;;;;;0.50;0.50;;;5.60;79.50;;;;;;5053255;28;20177;-66
2022/03/19 05:07:19;;;;;;;0.98;0.98;;;5.80;79.60;;;;;;5053214;28;20236;-66
2022/03/19 05:12:33;;;;;;;0.35;0.35;;;5.50;79.70;;;;;;5053186;28;20750;-65
2022/03/19 05:14:59;;;;;;;0.40;0.40;;;5.40;80.00;;;;;;5052988;28;20175;-66
2022/03/19 05:17:25;;;;;;;0.50;0.50;;;5.60;80.20;;;;;;5053054;28;20534;-66
2022/03/19 05:19:52;;;;;;;0.30;0.30;;;5.50;80.50;;;;;;5053130;28;20178;-66
2022/03/19 05:22:18;;;;;;;0.30;0.30;;;5.60;80.30;;;;;;5053202;28;20583;-66
2022/03/19 05:24:43;;;;;;;0.32;0.32;;;5.40;79.80;;;;;;5053211;28;20171;-66
2022/03/19 05:27:09;;;;;;;0.40;0.40;;;5.30;80.80;;;;;;5052906;28;20190;-66
2022/03/19 05:29:35;;;;;;;0.40;0.40;;;5.20;81.50;;;;;;5053112;28;20588;-66
2022/03/19 05:32:01;;;;;;;2.10;2.00;;;5.30;81.70;;;;;;5052952;28;20483;-66
2022/03/19 05:34:29;;;;;;;0.57;0.57;;;5.30;81.40;;;;;;5052979;28;20174;-65
2022/03/19 05:36:55;;;;;;;0.43;0.43;;;5.40;81.30;;;;;;5052863;28;20640;-66
2022/03/19 05:39:21;;;;;;;0.30;0.30;;;5.30;81.10;;;;;;5056038;28;20226;-66
2022/03/19 05:41:47;;;;;;;0.73;0.73;;;5.20;81.30;;;;;;5056829;28;20252;-65
2022/03/19 05:44:13;;;;;;;0.60;0.60;;;5.20;82.10;;;;;;5057095;28;20166;-66
2022/03/19 05:46:39;;;;;;;1.97;1.80;;;5.20;81.90;;;;;;5056890;28;20208;-66
2022/03/19 05:49:05;;;;;;;1.40;1.40;;;5.30;81.60;;;;;;5057025;28;20197;-66
2022/03/19 05:51:30;;;;;;;1.00;1.00;;;5.30;81.10;;;;;;5056688;28;20249;-66
2022/03/19 05:53:56;;;;;;;0.40;0.40;;;5.40;81.60;;;;;;5056915;28;20162;-66
2022/03/19 05:56:24;;;;;;;0.40;0.40;;;5.50;81.40;;;;;;5056610;28;20424;-66
2022/03/19 05:58:50;;;;;;;1.88;1.77;;;5.40;81.10;;;;;;5056855;28;20176;-65
2022/03/19 06:01:16;;;;;;;2.05;1.45;;;5.40;81.30;;;;;;5056667;28;20182;-66
2022/03/19 06:03:42;;;;;;;0.40;0.40;;;5.60;81.80;;;;;;5056765;28;20199;-66
2022/03/19 06:06:07;;;;;;;0.40;0.40;;;5.20;82.30;;;;;;5056354;28;20232;-66
2022/03/19 06:08:33;;;;;;;0.30;0.30;;;5.30;82.00;;;;;;5056451;28;20197;-65
2022/03/19 06:10:58;;;;;;;0.67;0.67;;;5.10;82.70;;;;;;5056193;28;20202;-66
2022/03/19 06:13:26;;;;;;;1.13;1.13;;;5.40;82.80;;;;;;5056454;28;20680;-66
2022/03/19 06:15:51;;;;;;;1.15;1.15;;;5.60;81.90;;;;;;5056265;28;20182;-66
2022/03/19 06:18:17;;;;;;;0.73;0.73;;;5.70;81.00;;;;;;5056358;28;20185;-66
2022/03/19 06:20:43;;;;;;;1.00;1.00;;;5.70;81.20;;;;;;5054225;28;20205;-66
2022/03/19 06:23:09;;;;;;;0.40;0.40;;;5.80;80.70;;;;;;5056950;28;20613;-65
2022/03/19 06:25:35;;;;;;;0.73;0.73;;;5.70;80.50;;;;;;5055410;28;20196;-65
2022/03/19 06:28:01;;;;;;;0.60;0.60;;;5.60;81.10;;;;;;5055157;28;20190;-66
2022/03/19 06:30:27;;;;;;;0.40;0.40;;;5.60;81.60;;;;;;5054847;28;20656;-66
2022/03/19 06:32:53;;;;;;;0.40;0.40;;;5.60;81.50;;;;;;5056419;28;20170;-65
2022/03/19 06:38:02;;;;;;;0.40;0.40;;;5.60;81.10;;;;;;5056602;28;20255;-65
2022/03/19 06:40:28;;;;;;;5.43;1.07;;;5.90;80.90;;;;;;5055839;28;20201;-65
2022/03/19 06:42:54;;;;;;;0.40;0.40;;;6.10;80.20;;;;;;5056332;28;20166;-66
2022/03/19 06:45:20;;;;;;;1.07;0.97;;;5.90;80.50;;;;;;5054005;28;20181;-66
2022/03/19 06:47:46;;;;;;;0.30;0.30;;;6.10;80.00;;;;;;5054273;28;20445;-65
2022/03/19 06:50:11;;;;;;;0.40;0.40;;;6.20;79.50;;;;;;5052531;28;20177;-65
2022/03/19 06:52:37;;;;;;;0.40;0.40;;;6.20;79.10;;;;;;5054497;28;20162;-66
2022/03/19 06:55:03;;;;;;;0.40;0.40;;;6.30;79.10;;;;;;5055004;28;20224;-65
2022/03/19 06:57:29;;;;;;;1.33;1.23;;;7.00;79.40;;;;;;5055058;28;20211;-66
2022/03/19 06:59:54;;;;;;;0.40;0.40;;;8.70;74.40;;;;;;5054669;28;20184;-66
2022/03/19 07:02:20;;;;;;;2.37;1.93;;;10.20;67.20;;;;;;5055604;28;20173;-66
2022/03/19 07:04:46;;;;;;;4.30;4.00;;;10.20;65.10;;;;;;5055672;28;20180;-65
2022/03/19 07:07:11;;;;;;;2.20;1.03;;;11.30;62.70;;;;;;5055328;28;20735;-66
2022/03/19 07:09:37;;;;;;;0.30;0.30;;;12.50;58.80;;;;;;5055002;28;20288;-66
2022/03/19 07:12:04;;;;;;;0.50;0.50;;;13.60;57.00;;;;;;5053766;28;20276;-65
2022/03/19 07:14:29;;;;;;;0.30;0.30;;;14.00;54.50;;;;;;5055891;28;20194;-68
2022/03/19 07:16:56;;;;;;;2.10;2.00;;;14.50;52.70;;;;;;5055931;28;20608;-72
2022/03/19 07:19:21;;;;;;;0.60;0.60;;;15.30;50.70;;;;;;5055481;28;20249;-66
2022/03/19 07:21:47;;;;;;;0.80;0.80;;;16.00;48.50;;;;;;5055082;28;20503;-66
2022/03/19 07:24:13;;;;;;;0.73;0.73;;;16.40;47.20;;;;;;5054901;28;20177;-67
2022/03/19 07:26:38;;;;;;;1.23;1.23;;;16.40;46.10;;;;;;5053013;28;20197;-68
2022/03/19 07:29:04;;;;;;;0.30;0.30;;;16.80;44.70;;;;;;5052994;28;20190;-67
2022/03/19 07:31:30;;;;;;;0.43;0.43;;;17.60;44.10;;;;;;5053426;28;20239;-67
2022/03/19 07:33:56;;;;;;;0.53;0.53;;;18.10;42.20;;;;;;5052927;28;20894;-68
2022/03/19 07:36:21;;;;;;;2.63;1.07;;;19.00;40.50;;;;;;5052789;28;20779;-67
2022/03/19 07:38:47;;;;;;;3.13;2.83;;;19.50;39.20;;;;;;5055182;28;20257;-67
2022/03/19 07:43:57;;;;;;;1.77;1.30;;;19.60;37.50;;;;;;5055347;28;20183;-67
2022/03/19 07:46:25;;;;;;;1.27;1.17;;;19.30;37.70;;;;;;5052951;28;20433;-68
2022/03/19 07:48:50;;;;;;;0.50;0.50;;;19.20;38.10;;;;;;5054682;28;20452;-67
2022/03/19 07:51:16;;;;;;;6.57;1.43;;;19.60;37.20;;;;;;5054563;28;20908;-67
2022/03/19 07:53:42;;;;;;;1.57;1.17;;;19.80;36.40;;;;;;5053976;28;20197;-67
2022/03/19 07:56:07;;;;;;;0.83;0.83;;;20.70;36.30;;;;;;5053144;28;20190;-67
2022/03/19 07:58:33;;;;;;;1.00;1.00;;;21.00;34.50;;;;;;5054659;28;20581;-67
2022/03/19 08:00:59;;;;;;;0.40;0.40;;;20.50;35.00;;;;;;5052212;28;20235;-67
2022/03/19 08:03:25;;;;;;;1.63;1.53;;;20.20;34.30;;;;;;5052360;28;20189;-68
2022/03/19 08:05:50;;;;;;;0.57;0.57;;;20.10;34.80;;;;;;5054470;28;20196;-68
2022/03/19 08:08:16;;;;;;;2.50;1.43;;;20.70;35.20;;;;;;5054663;28;20636;-68
2022/03/19 08:10:42;;;;;;;0.60;0.60;;;21.20;32.70;;;;;;5054282;28;20583;-68
2022/03/19 08:13:09;;;;;;;0.83;0.83;;;20.90;33.30;;;;;;5054574;28;20166;-67
2022/03/19 08:15:37;;;;;;;0.90;0.90;;;18.80;36.10;;;;;;5054423;28;20186;-67
2022/03/19 08:18:04;;;;;;;0.53;0.53;;;19.40;34.90;;;;;;5054479;28;20401;-67
2022/03/19 08:20:31;;;;;;;0.67;0.67;;;19.20;34.60;;;;;;5053875;28;20413;-68
2022/03/19 08:22:57;;;;;;;0.50;0.50;;;19.60;33.60;;;;;;5054075;28;20542;-68
2022/03/19 08:25:22;;;;;;;0.43;0.43;;;20.40;33.30;;;;;;5054175;28;20439;-68
2022/03/19 08:27:54;;;;;;;0.73;0.73;;;20.40;31.90;;;;;;5053973;28;20253;-67
2022/03/19 08:30:20;;;;;;;0.40;0.40;;;19.70;31.50;;;;;;5054126;28;20385;-67
2022/03/19 08:32:46;;;;;;;0.40;0.40;;;19.70;31.40;;;;;;5053015;28;20407;-67
2022/03/19 08:35:12;;;;;;;1.23;1.23;;;20.00;31.40;;;;;;5053016;28;20204;-68
2022/03/19 08:37:37;;;;;;;3.60;2.57;;;20.60;31.40;;;;;;5054429;28;20411;-67
2022/03/19 08:40:16;;;;;;;1.60;1.23;;;21.40;30.30;;;;;;5054155;28;20881;-68
2022/03/19 08:42:43;;;;;;;0.60;0.60;;;22.30;29.20;;;;;;5053577;28;20254;-69
2022/03/19 08:45:09;;;;;;;0.50;0.50;;;22.20;28.70;;;;;;5053476;28;20496;-68
2022/03/19 08:47:35;;;;;;;1.23;1.17;;;22.20;29.20;;;;;;5053594;28;20933;-68
2022/03/19 08:50:01;;;;;;;1.27;1.17;;;22.90;29.90;;;;;;5053392;28;20574;-68
2022/03/19 08:52:27;;;;;;;1.70;1.60;;;22.30;28.40;;;;;;5053546;28;20445;-68
2022/03/19 08:54:53;;;;;;;1.20;1.17;;;22.50;29.40;;;;;;5053551;28;20177;-67
2022/03/19 08:57:20;;;;;;;0.97;0.97;;;23.40;28.50;;;;;;5053481;28;20464;-65
2022/03/19 08:59:45;;;;;;;0.80;0.80;;;23.80;27.60;;;;;;5053515;28;20412;-67
2022/03/19 09:02:11;;;;;;;0.50;0.50;;;24.40;27.10;;;;;;5053037;28;20407;-66
2022/03/19 09:04:36;;;;;;;0.60;0.60;;;23.10;26.40;;;;;;5053016;28;20173;-67
2022/03/19 09:07:02;;;;;;;0.40;0.40;;;20.70;28.10;;;;;;5053290;28;20189;-68
2022/03/19 09:09:28;;;;;;;0.30;0.30;;;21.40;28.90;;;;;;5053554;28;20197;-69
2022/03/19 09:11:53;;;;;;;0.60;0.60;;;22.80;27.00;;;;;;5053126;28;20499;-68
2022/03/19 09:14:20;;;;;;;2.30;2.20;;;22.30;26.20;;;;;;5052783;28;20164;-68
2022/03/19 09:16:46;;;;;;;1.43;1.43;;;22.50;26.20;;;;;;5053181;28;20181;-66
2022/03/19 09:19:12;;;;;;;3.97;1.43;;;22.80;27.00;;;;;;5053218;28;20434;-67
2022/03/19 09:21:38;;;;;;;0.50;0.50;;;22.70;27.40;;;;;;5053397;28;20438;-65
2022/03/19 09:24:04;;;;;;;0.50;0.50;;;22.80;25.30;;;;;;5053163;28;20272;-66
2022/03/19 09:26:30;;;;;;;0.30;0.30;;;23.10;24.90;;;;;;5053174;28;20204;-68
2022/03/19 09:28:57;;;;;;;1.43;1.37;;;22.90;23.00;;;;;;5053171;28;20487;-68
2022/03/19 09:31:23;;;;;;;0.83;0.73;;;23.20;24.10;;;;;;5053085;28;20442;-68
2022/03/19 09:33:49;;;;;;;0.30;0.30;;;23.30;23.70;;;;;;5053347;28;20400;-69
2022/03/19 09:36:15;;;;;;;0.80;0.80;;;22.70;24.70;;;;;;5053328;28;20829;-69
2022/03/19 09:38:41;;;;;;;0.50;0.50;;;23.10;24.30;;;;;;5053194;28;20182;-69
2022/03/19 09:41:07;;;;;;;1.07;0.70;;;23.40;23.20;;;;;;5053117;28;20476;-68
2022/03/19 09:43:34;;;;;;;0.60;0.60;;;21.30;25.10;;;;;;5053120;28;20424;-68
2022/03/19 09:46:02;;;;;;;0.30;0.30;;;19.60;23.90;;;;;;5053011;28;20424;-68
2022/03/19 09:48:27;;;;;;;1.00;1.00;;;19.60;24.50;;;;;;5053145;28;20446;-68
2022/03/19 09:50:55;;;;;;;0.30;0.30;;;19.30;24.20;;;;;;5052923;28;20488;-68
2022/03/19 09:53:23;;;;;;;1.40;0.93;;;20.20;24.30;;;;;;5052890;28;20203;-65
2022/03/19 09:55:50;;;;;;;0.30;0.30;;;21.20;23.70;;;;;;5052716;28;20431;-69
2022/03/19 09:58:16;;;;;;;0.37;0.37;;;21.10;22.60;;;;;;5052956;28;20413;-69
2022/03/19 10:00:43;;;;;;;1.47;1.37;;;21.00;22.10;;;;;;5052608;28;20463;-68
2022/03/19 10:03:10;;;;;;;0.50;0.50;;;21.00;22.10;;;;;;5050771;28;20412;-68
2022/03/19 10:08:41;;;;;;;0.33;0.33;;;20.00;22.80;;;;;;5051550;28;20821;-68
2022/03/19 10:11:07;;;;;;;0.30;0.30;;;20.60;23.50;;;;;;5051767;28;20397;-68
2022/03/19 10:13:46;;;;;;;0.80;0.80;;;20.80;23.10;;;;;;5053302;28;20400;-68
2022/03/19 10:16:25;;;;;;;2.30;2.10;;;21.30;24.90;;;;;;5050304;28;20795;-68
2022/03/19 10:18:57;;;;;;;0.83;0.83;;;23.10;24.00;;;;;;5050815;28;20405;-68
2022/03/19 10:21:23;;;;;;;0.40;0.40;;;24.60;23.00;;;;;;5051716;28;20454;-65
2022/03/19 10:23:49;;;;;;;2.00;1.90;;;24.60;21.90;;;;;;5050427;28;20403;-66
2022/03/19 10:26:26;;;;;;;1.37;1.27;;;24.60;21.20;;;;;;5055772;28;20807;-66
2022/03/19 10:28:58;;;;;;;0.43;0.43;;;24.50;21.70;;;;;;5056205;28;20199;-67
2022/03/19 10:31:36;;;;;;;1.93;1.83;;;24.90;21.80;;;;;;5055908;28;20422;-67
2022/03/19 10:34:03;;;;;;;0.57;0.57;;;25.50;21.00;;;;;;5054991;28;20432;-65
2022/03/19 10:36:31;;;;;;;1.33;0.83;;;24.10;20.90;;;;;;5055705;28;20423;-65
2022/03/19 10:38:58;;;;;;;0.83;0.83;;;24.10;21.80;;;;;;5056533;28;20466;-65
2022/03/19 10:41:23;;;;;;;0.60;0.60;;;23.70;21.60;;;;;;5056107;28;20408;-65
2022/03/19 10:43:49;;;;;;;1.27;1.17;;;23.70;21.60;;;;;;5056314;28;21012;-67
2022/03/19 10:46:20;;;;;;;0.63;0.50;;;22.60;21.10;;;;;;5056089;28;20287;-64
2022/03/19 10:48:52;;;;;;;0.63;0.63;;;22.00;21.20;;;;;;5056252;28;20277;-65
2022/03/19 10:51:20;;;;;;;1.37;1.00;;;21.50;22.00;;;;;;5054158;28;20461;-65
2022/03/19 10:53:47;;;;;;;0.67;0.67;;;20.60;22.50;;;;;;5055224;28;20436;-64
2022/03/19 10:56:14;;;;;;;0.40;0.40;;;20.10;24.30;;;;;;5056042;28;20432;-65
2022/03/19 10:58:40;;;;;;;2.00;1.50;;;19.40;24.20;;;;;;5055696;28;20411;-64
2022/03/19 11:01:08;;;;;;;1.23;1.23;;;19.60;25.50;;;;;;5055490;28;20426;-64
2022/03/19 11:03:37;;;;;;;0.47;0.40;;;20.10;25.20;;;;;;5055724;28;20201;-64
2022/03/19 11:06:07;;;;;;;0.30;0.30;;;19.30;24.70;;;;;;5055402;28;20973;-64
2022/03/19 11:08:40;;;;;;;0.40;0.40;;;19.40;25.80;;;;;;5055322;28;20465;-64
2022/03/19 11:11:22;;;;;;;1.07;0.73;;;19.40;24.00;;;;;;5055453;28;20438;-64
2022/03/19 11:13:49;;;;;;;0.40;0.40;;;19.20;24.40;;;;;;5056033;28;20393;-67
2022/03/19 11:16:17;;;;;;;0.40;0.40;;;18.50;24.50;;;;;;5055435;28;20416;-67
2022/03/19 11:18:44;;;;;;;0.70;0.70;;;18.20;23.60;;;;;;5055693;28;20480;-66
2022/03/19 11:21:10;;;;;;;0.30;0.30;;;17.80;24.50;;;;;;5055206;28;20879;-64
2022/03/19 11:23:47;;;;;;;0.30;0.30;;;16.70;24.60;;;;;;5055444;28;20403;-67
2022/03/19 11:26:21;;;;;;;2.40;0.80;;;14.40;26.80;;;;;;5055524;28;20427;-67
2022/03/19 11:28:47;;;;;;;0.50;0.50;;;12.40;27.70;;;;;;5054229;28;20954;-67
2022/03/19 11:31:15;;;;;;;0.67;0.67;;;12.30;29.90;;;;;;5055130;28;20414;-67
2022/03/19 11:33:42;;;;;;;0.47;0.47;;;12.90;29.60;;;;;;5055205;28;20470;-67
2022/03/19 11:36:10;;;;;;;0.40;0.40;;;13.50;30.00;;;;;;5054606;28;20523;-67
2022/03/19 11:38:51;;;;;;;0.40;0.40;;;14.10;29.10;;;;;;5055270;28;20451;-67
2022/03/19 11:41:23;;;;;;;0.40;0.40;;;14.50;28.30;;;;;;5054984;28;20940;-66
2022/03/19 11:43:50;;;;;;;0.40;0.40;;;14.80;28.90;;;;;;5054005;28;20855;-66
2022/03/19 11:46:16;;;;;;;0.40;0.40;;;14.90;27.50;;;;;;5053617;28;20445;-67
2022/03/19 11:48:49;;;;;;;0.30;0.30;;;15.10;26.50;;;;;;5054051;28;20476;-66
2022/03/19 11:51:24;;;;;;;0.30;0.30;;;15.00;26.40;;;;;;5054092;28;20435;-64
2022/03/19 11:53:57;;;;;;;0.40;0.40;;;14.50;27.00;;;;;;5053929;28;20403;-64
2022/03/19 11:56:28;;;;;;;2.50;1.53;;;14.70;28.40;;;;;;5052615;28;20846;-64
2022/03/19 11:58:53;;;;;;;0.30;0.30;;;14.00;27.60;;;;;;5054433;28;20479;-64
2022/03/19 12:01:45;;;;;;;0.40;0.40;;;13.30;27.80;;;;;;5054145;28;20439;-64
2022/03/19 12:04:11;;;;;;;2.30;2.10;;;13.50;28.00;;;;;;5054781;28;20284;-64
2022/03/19 12:06:39;;;;;;;0.30;0.30;;;13.10;27.50;;;;;;5054282;28;20435;-64
2022/03/19 12:09:05;;;;;;;0.30;0.30;;;12.40;28.00;;;;;;5052397;28;20448;-64
2022/03/19 12:11:35;;;;;;;1.10;1.07;;;12.50;29.20;;;;;;5054409;28;20743;-64
2022/03/19 12:14:09;;;;;;;0.50;0.50;;;12.70;29.10;;;;;;5054670;28;20480;-65
2022/03/19 12:16:43;;;;;;;1.60;1.13;;;13.10;28.10;;;;;;5051730;28;20683;-64
2022/03/19 12:19:09;;;;;;;3.03;1.27;;;13.30;28.30;;;;;;5054451;28;20402;-64
2022/03/19 12:21:37;;;;;;;0.80;0.80;;;13.60;30.00;;;;;;5053779;28;20793;-67
2022/03/19 12:24:06;;;;;;;0.80;0.80;;;13.90;28.60;;;;;;5052969;28;20921;-67
2022/03/19 12:26:49;;;;;;;0.30;0.30;;;14.10;28.70;;;;;;5054075;28;20429;-67
2022/03/19 12:29:18;;;;;;;0.80;0.80;;;14.20;28.90;;;;;;5053468;28;21006;-67
2022/03/19 12:31:49;;;;;;;0.40;0.40;;;14.30;30.70;;;;;;5052489;28;20412;-66
2022/03/19 12:34:24;;;;;;;0.30;0.30;;;14.40;29.80;;;;;;5053760;28;20397;-67
2022/03/19 12:37:01;;;;;;;0.30;0.30;;;14.60;30.20;;;;;;5052605;28;20846;-67
2022/03/19 12:39:28;;;;;;;0.70;0.70;;;14.90;30.00;;;;;;5053393;28;20400;-67
2022/03/19 12:41:53;;;;;;;0.40;0.40;;;15.10;29.50;;;;;;5053432;28;20898;-67
2022/03/19 12:44:25;;;;;;;0.30;0.30;;;14.70;29.90;;;;;;5053250;28;20404;-67
2022/03/19 12:47:02;;;;;;;1.77;1.67;;;14.00;28.60;;;;;;5051470;28;20957;-67
2022/03/19 12:49:31;;;;;;;0.37;0.37;;;13.00;30.10;;;;;;5052256;28;20517;-67
2022/03/19 12:51:57;;;;;;;0.40;0.40;;;12.50;30.00;;;;;;5052557;28;20411;-67
2022/03/19 12:54:29;;;;;;;1.80;1.70;;;13.00;30.50;;;;;;5053503;28;20413;-67
2022/03/19 12:57:23;;;;;;;0.30;0.30;;;13.30;30.60;;;;;;5053328;28;20421;-67
2022/03/19 12:59:55;;;;;;;0.70;0.70;;;12.90;31.30;;;;;;5053668;28;20408;-68
2022/03/19 13:02:23;;;;;;;0.40;0.40;;;13.20;31.20;;;;;;5052522;28;20920;-67
2022/03/19 13:04:49;;;;;;;1.90;1.87;;;13.70;31.80;;;;;;5053516;28;20783;-64
2022/03/19 13:07:17;;;;;;;0.40;0.40;;;13.90;31.60;;;;;;5053680;28;20789;-64
2022/03/19 13:09:43;;;;;;;0.40;0.40;;;14.30;31.30;;;;;;5051898;28;20820;-65